sensor_id;sensor_type;location;lat;lon;timestamp;pressure;altitude;pressure_sealevel;temperature;humidity
49709;BME280;35601;55.902;13.606;2023-05-09T00:02:12;101748.75;;;5.60;42.53
49709;BME280;35601;55.902;13.606;2023-05-09T00:04:38;101748.81;;;5.42;42.93
49709;BME280;35601;55.902;13.606;2023-05-09T00:07:03;101748.20;;;5.52;43.24
49709;BME280;35601;55.902;13.606;2023-05-09T00:09:28;101748.21;;;5.47;43.67
49709;BME280;35601;55.902;13.606;2023-05-09T00:11:54;101743.75;;;5.07;43.84
49709;BME280;35601;55.902;13.606;2023-05-09T00:14:19;101744.62;;;5.54;44.10
49709;BME280;35601;55.902;13.606;2023-05-09T00:16:44;101740.84;;;5.68;43.93
49709;BME280;35601;55.902;13.606;2023-05-09T00:19:10;101739.26;;;5.76;44.54
49709;BME280;35601;55.902;13.606;2023-05-09T00:21:35;101737.98;;;5.48;44.29
49709;BME280;35601;55.902;13.606;2023-05-09T00:24:00;101739.80;;;5.73;44.71
49709;BME280;35601;55.902;13.606;2023-05-09T00:26:26;101736.12;;;5.54;45.25
49709;BME280;35601;55.902;13.606;2023-05-09T00:28:51;101734.19;;;5.85;44.89
49709;BME280;35601;55.902;13.606;2023-05-09T00:31:17;101736.66;;;5.73;45.07
49709;BME280;35601;55.902;13.606;2023-05-09T00:33:41;101730.11;;;5.72;45.41
49709;BME280;35601;55.902;13.606;2023-05-09T00:36:07;101725.75;;;5.44;46.56
49709;BME280;35601;55.902;13.606;2023-05-09T00:38:32;101724.61;;;5.48;46.58
49709;BME280;35601;55.902;13.606;2023-05-09T00:40:57;101722.57;;;5.59;46.64
49709;BME280;35601;55.902;13.606;2023-05-09T00:43:24;101720.76;;;5.48;47.47
49709;BME280;35601;55.902;13.606;2023-05-09T00:45:48;101723.89;;;5.71;47.13
49709;BME280;35601;55.902;13.606;2023-05-09T00:48:15;101722.93;;;5.67;47.08
49709;BME280;35601;55.902;13.606;2023-05-09T00:50:39;101717.44;;;5.73;47.97
49709;BME280;35601;55.902;13.606;2023-05-09T00:53:06;101719.90;;;5.24;48.48
49709;BME280;35601;55.902;13.606;2023-05-09T00:55:30;101711.28;;;5.52;48.54
49709;BME280;35601;55.902;13.606;2023-05-09T00:57:55;101714.68;;;5.56;49.04
49709;BME280;35601;55.902;13.606;2023-05-09T01:00:20;101713.99;;;5.51;49.76
49709;BME280;35601;55.902;13.606;2023-05-09T01:02:48;101709.93;;;5.56;50.05
49709;BME280;35601;55.902;13.606;2023-05-09T01:05:13;101710.78;;;5.38;50.28
49709;BME280;35601;55.902;13.606;2023-05-09T01:07:44;101712.85;;;5.32;51.10
49709;BME280;35601;55.902;13.606;2023-05-09T01:10:10;101707.69;;;5.41;50.86
49709;BME280;35601;55.902;13.606;2023-05-09T01:12:36;101708.12;;;5.41;51.67
49709;BME280;35601;55.902;13.606;2023-05-09T01:15:00;101709.28;;;5.09;52.19
49709;BME280;35601;55.902;13.606;2023-05-09T01:17:29;101708.62;;;5.37;52.58
49709;BME280;35601;55.902;13.606;2023-05-09T01:19:55;101710.64;;;5.25;53.26
49709;BME280;35601;55.902;13.606;2023-05-09T01:22:11;101711.51;;;5.03;53.19
49709;BME280;35601;55.902;13.606;2023-05-09T01:27:16;101711.47;;;5.20;53.34
49709;BME280;35601;55.902;13.606;2023-05-09T01:29:36;101711.82;;;5.35;53.03
49709;BME280;35601;55.902;13.606;2023-05-09T01:31:54;101706.73;;;5.54;52.53
49709;BME280;35601;55.902;13.606;2023-05-09T01:34:19;101700.22;;;5.57;52.59
49709;BME280;35601;55.902;13.606;2023-05-09T01:36:43;101700.02;;;5.29;53.19
49709;BME280;35601;55.902;13.606;2023-05-09T01:39:11;101701.63;;;5.39;53.29
49709;BME280;35601;55.902;13.606;2023-05-09T01:41:36;101704.76;;;5.41;53.71
49709;BME280;35601;55.902;13.606;2023-05-09T01:44:03;101701.48;;;5.35;54.06
49709;BME280;35601;55.902;13.606;2023-05-09T01:46:27;101702.20;;;5.29;54.39
49709;BME280;35601;55.902;13.606;2023-05-09T01:48:49;101701.03;;;5.18;54.70
49709;BME280;35601;55.902;13.606;2023-05-09T01:51:16;101700.15;;;5.24;54.65
49709;BME280;35601;55.902;13.606;2023-05-09T01:53:40;101696.43;;;5.22;54.88
49709;BME280;35601;55.902;13.606;2023-05-09T01:56:08;101695.52;;;5.18;55.36
49709;BME280;35601;55.902;13.606;2023-05-09T01:58:33;101693.90;;;5.40;55.17
49709;BME280;35601;55.902;13.606;2023-05-09T02:00:57;101697.21;;;4.84;56.47
49709;BME280;35601;55.902;13.606;2023-05-09T02:03:21;101695.67;;;4.97;56.70
49709;BME280;35601;55.902;13.606;2023-05-09T02:05:49;101691.43;;;5.08;56.28
49709;BME280;35601;55.902;13.606;2023-05-09T02:08:13;101696.68;;;4.74;57.73
49709;BME280;35601;55.902;13.606;2023-05-09T02:10:40;101696.89;;;4.78;57.77
49709;BME280;35601;55.902;13.606;2023-05-09T02:13:04;101693.26;;;4.84;58.09
49709;BME280;35601;55.902;13.606;2023-05-09T02:15:29;101692.25;;;5.22;58.27
49709;BME280;35601;55.902;13.606;2023-05-09T02:17:55;101687.48;;;5.02;57.74
49709;BME280;35601;55.902;13.606;2023-05-09T02:20:22;101686.63;;;5.16;59.06
49709;BME280;35601;55.902;13.606;2023-05-09T02:22:46;101685.64;;;4.67;59.71
49709;BME280;35601;55.902;13.606;2023-05-09T02:25:13;101688.00;;;4.78;59.79
49709;BME280;35601;55.902;13.606;2023-05-09T02:27:37;101689.26;;;4.89;60.53
49709;BME280;35601;55.902;13.606;2023-05-09T02:30:07;101691.33;;;4.58;61.40
49709;BME280;35601;55.902;13.606;2023-05-09T02:32:30;101689.33;;;4.68;61.57
49709;BME280;35601;55.902;13.606;2023-05-09T02:34:55;101685.44;;;4.75;61.81
49709;BME280;35601;55.902;13.606;2023-05-09T02:37:19;101684.26;;;4.51;62.54
49709;BME280;35601;55.902;13.606;2023-05-09T02:39:46;101682.74;;;4.48;62.55
49709;BME280;35601;55.902;13.606;2023-05-09T02:42:11;101680.63;;;4.86;62.40
49709;BME280;35601;55.902;13.606;2023-05-09T02:44:34;101679.98;;;4.69;62.56
49709;BME280;35601;55.902;13.606;2023-05-09T02:47:01;101679.93;;;4.65;62.60
49709;BME280;35601;55.902;13.606;2023-05-09T02:49:24;101672.95;;;4.78;62.26
49709;BME280;35601;55.902;13.606;2023-05-09T02:51:50;101671.22;;;4.77;62.50
49709;BME280;35601;55.902;13.606;2023-05-09T02:54:16;101670.95;;;4.73;62.44
49709;BME280;35601;55.902;13.606;2023-05-09T02:56:41;101677.32;;;4.87;62.06
49709;BME280;35601;55.902;13.606;2023-05-09T02:59:06;101677.72;;;4.84;61.74
49709;BME280;35601;55.902;13.606;2023-05-09T03:01:32;101677.10;;;4.91;62.08
49709;BME280;35601;55.902;13.606;2023-05-09T03:03:57;101674.68;;;4.79;62.79
49709;BME280;35601;55.902;13.606;2023-05-09T03:06:22;101674.43;;;5.04;62.07
49709;BME280;35601;55.902;13.606;2023-05-09T03:08:47;101669.43;;;4.70;61.56
49709;BME280;35601;55.902;13.606;2023-05-09T03:11:13;101674.11;;;4.50;62.51
49709;BME280;35601;55.902;13.606;2023-05-09T03:13:38;101671.62;;;5.01;62.20
49709;BME280;35601;55.902;13.606;2023-05-09T03:16:06;101674.53;;;4.60;62.32
49709;BME280;35601;55.902;13.606;2023-05-09T03:18:29;101662.50;;;5.27;61.60
49709;BME280;35601;55.902;13.606;2023-05-09T03:20:54;101668.04;;;4.63;62.40
49709;BME280;35601;55.902;13.606;2023-05-09T03:23:19;101666.08;;;4.74;62.20
49709;BME280;35601;55.902;13.606;2023-05-09T03:25:45;101667.35;;;4.57;61.95
49709;BME280;35601;55.902;13.606;2023-05-09T03:28:11;101663.87;;;5.14;62.14
49709;BME280;35601;55.902;13.606;2023-05-09T03:30:37;101663.78;;;4.84;61.96
49709;BME280;35601;55.902;13.606;2023-05-09T03:33:02;101662.93;;;4.80;62.05
49709;BME280;35601;55.902;13.606;2023-05-09T03:35:28;101664.49;;;4.81;61.83
49709;BME280;35601;55.902;13.606;2023-05-09T03:37:53;101661.76;;;5.13;62.29
49709;BME280;35601;55.902;13.606;2023-05-09T03:40:18;101666.83;;;4.66;62.98
49709;BME280;35601;55.902;13.606;2023-05-09T03:42:43;101665.29;;;4.57;62.61
49709;BME280;35601;55.902;13.606;2023-05-09T03:45:10;101664.17;;;5.03;62.40
49709;BME280;35601;55.902;13.606;2023-05-09T03:47:34;101662.65;;;5.30;62.33
49709;BME280;35601;55.902;13.606;2023-05-09T03:50:01;101663.26;;;5.22;61.61
49709;BME280;35601;55.902;13.606;2023-05-09T03:52:25;101659.47;;;5.00;61.61
49709;BME280;35601;55.902;13.606;2023-05-09T03:54:50;101658.03;;;5.16;61.09
49709;BME280;35601;55.902;13.606;2023-05-09T03:57:15;101659.22;;;5.15;61.58
49709;BME280;35601;55.902;13.606;2023-05-09T03:59:41;101658.20;;;5.30;60.86
49709;BME280;35601;55.902;13.606;2023-05-09T04:02:06;101654.61;;;5.52;60.48
49709;BME280;35601;55.902;13.606;2023-05-09T04:04:32;101656.21;;;5.49;60.38
49709;BME280;35601;55.902;13.606;2023-05-09T04:06:58;101656.37;;;5.63;60.07
49709;BME280;35601;55.902;13.606;2023-05-09T04:09:24;101656.80;;;5.38;60.41
49709;BME280;35601;55.902;13.606;2023-05-09T04:11:50;101661.64;;;5.85;59.58
49709;BME280;35601;55.902;13.606;2023-05-09T04:14:15;101659.08;;;5.86;59.10
49709;BME280;35601;55.902;13.606;2023-05-09T04:16:41;101653.85;;;6.45;57.91
49709;BME280;35601;55.902;13.606;2023-05-09T04:19:07;101651.70;;;6.69;57.06
49709;BME280;35601;55.902;13.606;2023-05-09T04:21:32;101653.72;;;6.59;56.87
49709;BME280;35601;55.902;13.606;2023-05-09T04:23:58;101653.76;;;6.69;56.93
49709;BME280;35601;55.902;13.606;2023-05-09T04:26:23;101653.15;;;6.72;56.83
49709;BME280;35601;55.902;13.606;2023-05-09T04:28:49;101653.45;;;6.91;56.65
49709;BME280;35601;55.902;13.606;2023-05-09T04:31:14;101651.09;;;5.96;56.03
49709;BME280;35601;55.902;13.606;2023-05-09T04:33:39;101642.90;;;6.93;56.15
49709;BME280;35601;55.902;13.606;2023-05-09T04:36:05;101640.18;;;6.95;55.15
49709;BME280;35601;55.902;13.606;2023-05-09T04:38:29;101643.43;;;7.27;55.44
49709;BME280;35601;55.902;13.606;2023-05-09T04:40:55;101648.25;;;7.65;55.50
49709;BME280;35601;55.902;13.606;2023-05-09T04:43:20;101644.65;;;7.72;55.12
49709;BME280;35601;55.902;13.606;2023-05-09T04:45:47;101644.82;;;7.12;55.46
49709;BME280;35601;55.902;13.606;2023-05-09T04:48:11;101643.61;;;7.50;55.43
49709;BME280;35601;55.902;13.606;2023-05-09T04:50:37;101642.86;;;7.71;54.06
49709;BME280;35601;55.902;13.606;2023-05-09T04:53:02;101643.97;;;7.63;53.58
49709;BME280;35601;55.902;13.606;2023-05-09T04:55:28;101644.96;;;8.04;54.03
49709;BME280;35601;55.902;13.606;2023-05-09T04:57:53;101650.20;;;7.97;53.08
49709;BME280;35601;55.902;13.606;2023-05-09T05:00:20;101649.62;;;8.16;52.87
49709;BME280;35601;55.902;13.606;2023-05-09T05:02:45;101647.17;;;8.36;52.53
49709;BME280;35601;55.902;13.606;2023-05-09T05:05:10;101647.66;;;8.68;52.26
49709;BME280;35601;55.902;13.606;2023-05-09T05:07:36;101639.19;;;8.58;51.21
49709;BME280;35601;55.902;13.606;2023-05-09T05:10:01;101641.15;;;9.38;50.71
49709;BME280;35601;55.902;13.606;2023-05-09T05:12:27;101640.30;;;9.25;50.75
49709;BME280;35601;55.902;13.606;2023-05-09T05:14:53;101644.13;;;9.07;50.14
49709;BME280;35601;55.902;13.606;2023-05-09T05:17:18;101639.03;;;9.26;50.02
49709;BME280;35601;55.902;13.606;2023-05-09T05:19:44;101640.47;;;9.51;49.36
49709;BME280;35601;55.902;13.606;2023-05-09T05:22:09;101641.04;;;9.36;48.95
49709;BME280;35601;55.902;13.606;2023-05-09T05:24:35;101641.49;;;9.51;49.00
49709;BME280;35601;55.902;13.606;2023-05-09T05:27:00;101637.18;;;9.67;49.05
49709;BME280;35601;55.902;13.606;2023-05-09T05:29:26;101636.94;;;9.58;49.37
49709;BME280;35601;55.902;13.606;2023-05-09T05:31:53;101629.78;;;9.85;48.56
49709;BME280;35601;55.902;13.606;2023-05-09T05:34:17;101628.57;;;10.00;49.23
49709;BME280;35601;55.902;13.606;2023-05-09T05:36:42;101628.04;;;10.19;48.96
49709;BME280;35601;55.902;13.606;2023-05-09T05:39:08;101626.15;;;9.66;49.37
49709;BME280;35601;55.902;13.606;2023-05-09T05:41:34;101627.38;;;9.60;49.09
49709;BME280;35601;55.902;13.606;2023-05-09T05:43:59;101625.88;;;9.35;49.82
49709;BME280;35601;55.902;13.606;2023-05-09T05:46:24;101620.63;;;9.67;49.83
49709;BME280;35601;55.902;13.606;2023-05-09T05:48:50;101622.47;;;9.64;48.91
49709;BME280;35601;55.902;13.606;2023-05-09T05:51:17;101628.28;;;9.52;49.39
49709;BME280;35601;55.902;13.606;2023-05-09T05:53:40;101626.93;;;9.96;50.26
49709;BME280;35601;55.902;13.606;2023-05-09T05:56:07;101625.97;;;9.64;50.02
49709;BME280;35601;55.902;13.606;2023-05-09T05:58:32;101622.48;;;10.09;50.60
49709;BME280;35601;55.902;13.606;2023-05-09T06:00:57;101619.89;;;10.25;48.89
49709;BME280;35601;55.902;13.606;2023-05-09T06:03:22;101620.28;;;10.25;48.99
49709;BME280;35601;55.902;13.606;2023-05-09T06:05:48;101620.70;;;9.95;49.09
49709;BME280;35601;55.902;13.606;2023-05-09T06:08:13;101622.65;;;10.02;48.51
49709;BME280;35601;55.902;13.606;2023-05-09T06:10:38;101617.15;;;9.85;48.00
49709;BME280;35601;55.902;13.606;2023-05-09T06:13:06;101614.99;;;10.07;50.01
49709;BME280;35601;55.902;13.606;2023-05-09T06:15:30;101615.79;;;10.12;49.31
49709;BME280;35601;55.902;13.606;2023-05-09T06:17:55;101614.54;;;10.86;49.16
49709;BME280;35601;55.902;13.606;2023-05-09T06:20:23;101611.31;;;10.13;48.62
49709;BME280;35601;55.902;13.606;2023-05-09T06:22:47;101611.16;;;9.99;48.38
49709;BME280;35601;55.902;13.606;2023-05-09T06:25:13;101614.20;;;10.15;49.16
49709;BME280;35601;55.902;13.606;2023-05-09T06:27:38;101604.74;;;10.77;46.90
49709;BME280;35601;55.902;13.606;2023-05-09T06:30:04;101606.11;;;10.22;47.10
49709;BME280;35601;55.902;13.606;2023-05-09T06:32:28;101605.25;;;10.11;47.54
49709;BME280;35601;55.902;13.606;2023-05-09T06:34:54;101605.84;;;10.18;49.27
49709;BME280;35601;55.902;13.606;2023-05-09T06:37:20;101601.26;;;10.73;46.69
49709;BME280;35601;55.902;13.606;2023-05-09T06:39:45;101599.30;;;10.43;45.12
49709;BME280;35601;55.902;13.606;2023-05-09T06:42:11;101596.04;;;10.44;46.31
49709;BME280;35601;55.902;13.606;2023-05-09T06:44:36;101592.11;;;10.61;44.69
49709;BME280;35601;55.902;13.606;2023-05-09T06:47:01;101581.98;;;10.07;45.27
49709;BME280;35601;55.902;13.606;2023-05-09T06:49:27;101579.83;;;10.16;45.19
49709;BME280;35601;55.902;13.606;2023-05-09T06:51:52;101578.28;;;10.58;45.66
49709;BME280;35601;55.902;13.606;2023-05-09T06:54:18;101574.86;;;9.76;44.31
49709;BME280;35601;55.902;13.606;2023-05-09T06:56:43;101574.01;;;10.96;43.18
49709;BME280;35601;55.902;13.606;2023-05-09T06:59:08;101573.53;;;10.47;43.10
49709;BME280;35601;55.902;13.606;2023-05-09T07:01:34;101575.52;;;10.48;43.43
49709;BME280;35601;55.902;13.606;2023-05-09T07:03:59;101573.69;;;10.47;42.72
49709;BME280;35601;55.902;13.606;2023-05-09T07:06:24;101568.81;;;10.80;41.66
49709;BME280;35601;55.902;13.606;2023-05-09T07:08:49;101560.43;;;10.57;41.07
49709;BME280;35601;55.902;13.606;2023-05-09T07:11:15;101564.83;;;10.61;42.04
49709;BME280;35601;55.902;13.606;2023-05-09T07:13:40;101561.96;;;10.63;42.21
49709;BME280;35601;55.902;13.606;2023-05-09T07:16:06;101557.06;;;10.52;41.36
49709;BME280;35601;55.902;13.606;2023-05-09T07:18:31;101560.72;;;10.69;40.67
49709;BME280;35601;55.902;13.606;2023-05-09T07:20:56;101558.75;;;10.90;40.27
49709;BME280;35601;55.902;13.606;2023-05-09T07:23:22;101556.28;;;10.91;40.87
49709;BME280;35601;55.902;13.606;2023-05-09T07:25:47;101552.65;;;11.20;39.44
49709;BME280;35601;55.902;13.606;2023-05-09T07:28:13;101543.84;;;11.29;39.66
49709;BME280;35601;55.902;13.606;2023-05-09T07:30:39;101549.65;;;10.81;38.11
49709;BME280;35601;55.902;13.606;2023-05-09T07:33:04;101532.98;;;10.83;38.05
49709;BME280;35601;55.902;13.606;2023-05-09T07:35:29;101542.47;;;11.22;38.70
49709;BME280;35601;55.902;13.606;2023-05-09T07:37:55;101535.15;;;10.52;38.17
49709;BME280;35601;55.902;13.606;2023-05-09T07:40:19;101527.19;;;9.97;39.63
49709;BME280;35601;55.902;13.606;2023-05-09T07:42:45;101531.71;;;10.41;40.11
49709;BME280;35601;55.902;13.606;2023-05-09T07:45:10;101525.19;;;10.43;37.72
49709;BME280;35601;55.902;13.606;2023-05-09T07:47:35;101521.33;;;10.42;37.47
49709;BME280;35601;55.902;13.606;2023-05-09T07:50:01;101517.18;;;10.55;37.51
49709;BME280;35601;55.902;13.606;2023-05-09T07:52:26;101521.82;;;10.91;37.78
49709;BME280;35601;55.902;13.606;2023-05-09T07:54:52;101521.42;;;10.80;36.72
49709;BME280;35601;55.902;13.606;2023-05-09T07:57:17;101525.95;;;10.86;35.43
49709;BME280;35601;55.902;13.606;2023-05-09T07:59:42;101523.74;;;10.96;36.18
49709;BME280;35601;55.902;13.606;2023-05-09T08:02:08;101520.94;;;10.55;36.55
49709;BME280;35601;55.902;13.606;2023-05-09T08:04:34;101518.82;;;10.76;36.69
49709;BME280;35601;55.902;13.606;2023-05-09T08:06:58;101516.18;;;11.10;36.77
49709;BME280;35601;55.902;13.606;2023-05-09T08:09:23;101510.86;;;11.75;34.41
49709;BME280;35601;55.902;13.606;2023-05-09T08:11:48;101515.68;;;11.63;34.73
49709;BME280;35601;55.902;13.606;2023-05-09T08:14:13;101508.03;;;11.48;34.07
49709;BME280;35601;55.902;13.606;2023-05-09T08:16:39;101508.06;;;12.29;34.28
49709;BME280;35601;55.902;13.606;2023-05-09T08:19:04;101504.90;;;11.57;34.76
49709;BME280;35601;55.902;13.606;2023-05-09T08:21:29;101504.56;;;11.38;33.68
49709;BME280;35601;55.902;13.606;2023-05-09T08:23:54;101509.21;;;11.57;35.16
49709;BME280;35601;55.902;13.606;2023-05-09T08:26:19;101507.84;;;12.25;33.70
49709;BME280;35601;55.902;13.606;2023-05-09T08:28:45;101503.85;;;12.03;33.04
49709;BME280;35601;55.902;13.606;2023-05-09T08:31:10;101500.48;;;11.57;32.93
49709;BME280;35601;55.902;13.606;2023-05-09T08:33:35;101502.46;;;11.80;34.09
49709;BME280;35601;55.902;13.606;2023-05-09T08:36:00;101504.67;;;11.24;34.12
49709;BME280;35601;55.902;13.606;2023-05-09T08:38:25;101497.74;;;11.68;33.62
49709;BME280;35601;55.902;13.606;2023-05-09T08:40:51;101495.75;;;11.53;33.33
49709;BME280;35601;55.902;13.606;2023-05-09T08:43:16;101498.20;;;11.66;32.68
49709;BME280;35601;55.902;13.606;2023-05-09T08:45:45;101488.28;;;11.82;33.20
49709;BME280;35601;55.902;13.606;2023-05-09T08:48:07;101482.09;;;11.72;33.38
49709;BME280;35601;55.902;13.606;2023-05-09T08:50:32;101481.69;;;12.10;32.59
49709;BME280;35601;55.902;13.606;2023-05-09T08:52:57;101479.96;;;11.62;32.82
49709;BME280;35601;55.902;13.606;2023-05-09T08:55:24;101490.65;;;11.67;33.42
49709;BME280;35601;55.902;13.606;2023-05-09T08:57:48;101485.81;;;11.79;33.03
49709;BME280;35601;55.902;13.606;2023-05-09T09:00:15;101477.88;;;11.59;34.15
49709;BME280;35601;55.902;13.606;2023-05-09T09:02:40;101476.90;;;11.96;32.81
49709;BME280;35601;55.902;13.606;2023-05-09T09:05:05;101480.22;;;12.37;33.13
49709;BME280;35601;55.902;13.606;2023-05-09T09:07:29;101476.62;;;12.21;33.00
49709;BME280;35601;55.902;13.606;2023-05-09T09:09:56;101470.90;;;12.60;32.53
49709;BME280;35601;55.902;13.606;2023-05-09T09:12:21;101470.13;;;12.63;32.16
49709;BME280;35601;55.902;13.606;2023-05-09T09:14:48;101467.26;;;12.32;30.55
49709;BME280;35601;55.902;13.606;2023-05-09T09:17:11;101464.75;;;12.69;33.28
49709;BME280;35601;55.902;13.606;2023-05-09T09:19:36;101461.07;;;12.62;32.97
49709;BME280;35601;55.902;13.606;2023-05-09T09:22:03;101461.69;;;12.46;31.60
49709;BME280;35601;55.902;13.606;2023-05-09T09:24:28;101464.49;;;12.59;32.05
49709;BME280;35601;55.902;13.606;2023-05-09T09:26:52;101457.25;;;12.42;31.75
49709;BME280;35601;55.902;13.606;2023-05-09T09:29:17;101446.38;;;12.54;30.90
49709;BME280;35601;55.902;13.606;2023-05-09T09:31:43;101445.57;;;13.33;31.07
49709;BME280;35601;55.902;13.606;2023-05-09T09:34:08;101449.11;;;13.48;30.05
49709;BME280;35601;55.902;13.606;2023-05-09T09:36:31;101448.31;;;13.37;29.80
49709;BME280;35601;55.902;13.606;2023-05-09T09:38:58;101449.47;;;13.38;29.06
49709;BME280;35601;55.902;13.606;2023-05-09T09:41:29;101448.21;;;13.02;29.90
49709;BME280;35601;55.902;13.606;2023-05-09T09:43:47;101454.68;;;12.78;30.58
49709;BME280;35601;55.902;13.606;2023-05-09T09:46:13;101446.38;;;12.57;30.82
49709;BME280;35601;55.902;13.606;2023-05-09T09:48:37;101453.91;;;12.54;31.33
49709;BME280;35601;55.902;13.606;2023-05-09T09:51:08;101450.15;;;12.80;30.66
49709;BME280;35601;55.902;13.606;2023-05-09T09:53:39;101445.12;;;12.89;31.58
49709;BME280;35601;55.902;13.606;2023-05-09T09:55:53;101444.64;;;13.38;32.96
49709;BME280;35601;55.902;13.606;2023-05-09T09:58:19;101441.87;;;13.46;30.05
49709;BME280;35601;55.902;13.606;2023-05-09T10:00:45;101431.53;;;12.91;30.54
49709;BME280;35601;55.902;13.606;2023-05-09T10:03:14;101434.72;;;13.03;29.94
49709;BME280;35601;55.902;13.606;2023-05-09T10:05:35;101431.26;;;13.56;29.70
49709;BME280;35601;55.902;13.606;2023-05-09T10:08:03;101434.02;;;13.59;29.87
49709;BME280;35601;55.902;13.606;2023-05-09T10:10:26;101427.26;;;12.78;30.80
49709;BME280;35601;55.902;13.606;2023-05-09T10:12:53;101427.56;;;13.16;31.46
49709;BME280;35601;55.902;13.606;2023-05-09T10:15:16;101433.72;;;13.44;31.43
49709;BME280;35601;55.902;13.606;2023-05-09T10:17:42;101439.08;;;14.02;30.95
49709;BME280;35601;55.902;13.606;2023-05-09T10:20:07;101434.04;;;13.42;30.92
49709;BME280;35601;55.902;13.606;2023-05-09T10:22:32;101431.73;;;13.18;30.44
49709;BME280;35601;55.902;13.606;2023-05-09T10:25:01;101432.59;;;13.25;31.03
49709;BME280;35601;55.902;13.606;2023-05-09T10:27:26;101436.16;;;12.93;31.28
49709;BME280;35601;55.902;13.606;2023-05-09T10:29:49;101428.71;;;12.51;31.87
49709;BME280;35601;55.902;13.606;2023-05-09T10:32:16;101433.62;;;12.55;31.58
49709;BME280;35601;55.902;13.606;2023-05-09T10:34:39;101431.60;;;13.31;32.34
49709;BME280;35601;55.902;13.606;2023-05-09T10:37:04;101427.85;;;13.25;31.43
49709;BME280;35601;55.902;13.606;2023-05-09T10:39:28;101426.11;;;13.56;33.55
49709;BME280;35601;55.902;13.606;2023-05-09T10:41:53;101425.05;;;13.99;31.87
49709;BME280;35601;55.902;13.606;2023-05-09T10:44:18;101419.26;;;13.74;30.05
49709;BME280;35601;55.902;13.606;2023-05-09T10:46:43;101422.89;;;13.02;31.23
49709;BME280;35601;55.902;13.606;2023-05-09T10:49:08;101416.42;;;13.26;30.73
49709;BME280;35601;55.902;13.606;2023-05-09T10:51:33;101429.82;;;13.04;31.10
49709;BME280;35601;55.902;13.606;2023-05-09T10:53:58;101408.55;;;13.13;31.90
49709;BME280;35601;55.902;13.606;2023-05-09T10:56:25;101405.80;;;12.81;32.44
49709;BME280;35601;55.902;13.606;2023-05-09T10:58:49;101407.41;;;13.63;33.42
49709;BME280;35601;55.902;13.606;2023-05-09T11:01:27;101400.58;;;13.17;32.19
49709;BME280;35601;55.902;13.606;2023-05-09T11:03:51;101400.23;;;12.87;32.18
49709;BME280;35601;55.902;13.606;2023-05-09T11:06:05;101401.85;;;13.01;33.67
49709;BME280;35601;55.902;13.606;2023-05-09T11:08:32;101396.48;;;13.86;31.06
49709;BME280;35601;55.902;13.606;2023-05-09T11:10:57;101388.32;;;14.44;29.52
49709;BME280;35601;55.902;13.606;2023-05-09T11:13:22;101388.11;;;14.93;30.13
49709;BME280;35601;55.902;13.606;2023-05-09T11:18:12;101390.22;;;14.38;29.95
49709;BME280;35601;55.902;13.606;2023-05-09T11:20:44;101383.59;;;15.01;28.63
49709;BME280;35601;55.902;13.606;2023-05-09T11:23:03;101390.52;;;15.09;28.62
49709;BME280;35601;55.902;13.606;2023-05-09T11:25:28;101378.11;;;13.91;28.43
49709;BME280;35601;55.902;13.606;2023-05-09T11:27:58;101379.52;;;14.43;29.02
49709;BME280;35601;55.902;13.606;2023-05-09T11:30:20;101380.30;;;15.09;28.74
49709;BME280;35601;55.902;13.606;2023-05-09T11:32:45;101370.74;;;14.54;27.95
49709;BME280;35601;55.902;13.606;2023-05-09T11:35:11;101370.10;;;15.06;28.96
49709;BME280;35601;55.902;13.606;2023-05-09T11:37:43;101371.69;;;15.55;28.36
49709;BME280;35601;55.902;13.606;2023-05-09T11:40:00;101368.22;;;14.26;28.29
49709;BME280;35601;55.902;13.606;2023-05-09T11:42:25;101372.59;;;14.93;27.70
49709;BME280;35601;55.902;13.606;2023-05-09T11:44:50;101364.63;;;14.59;27.97
49709;BME280;35601;55.902;13.606;2023-05-09T11:47:16;101362.59;;;14.86;29.94
49709;BME280;35601;55.902;13.606;2023-05-09T11:49:41;101361.03;;;14.74;28.12
49709;BME280;35601;55.902;13.606;2023-05-09T11:52:05;101358.53;;;14.47;29.40
49709;BME280;35601;55.902;13.606;2023-05-09T11:54:30;101354.82;;;14.28;28.88
49709;BME280;35601;55.902;13.606;2023-05-09T11:56:56;101355.21;;;15.30;27.73
49709;BME280;35601;55.902;13.606;2023-05-09T11:59:22;101352.12;;;14.93;27.75
49709;BME280;35601;55.902;13.606;2023-05-09T12:01:46;101349.43;;;14.32;28.64
49709;BME280;35601;55.902;13.606;2023-05-09T12:04:11;101351.34;;;13.75;29.32
49709;BME280;35601;55.902;13.606;2023-05-09T12:06:37;101346.58;;;14.19;28.59
49709;BME280;35601;55.902;13.606;2023-05-09T12:09:02;101343.01;;;13.95;28.53
49709;BME280;35601;55.902;13.606;2023-05-09T12:11:29;101339.88;;;13.82;29.00
49709;BME280;35601;55.902;13.606;2023-05-09T12:13:53;101333.72;;;14.17;28.15
49709;BME280;35601;55.902;13.606;2023-05-09T12:16:18;101337.06;;;14.28;27.79
49709;BME280;35601;55.902;13.606;2023-05-09T12:18:44;101333.91;;;14.29;27.45
49709;BME280;35601;55.902;13.606;2023-05-09T12:21:08;101332.81;;;13.96;29.16
49709;BME280;35601;55.902;13.606;2023-05-09T12:23:33;101323.42;;;13.63;28.94
49709;BME280;35601;55.902;13.606;2023-05-09T12:25:58;101323.63;;;13.46;29.39
49709;BME280;35601;55.902;13.606;2023-05-09T12:28:25;101322.88;;;13.77;29.46
49709;BME280;35601;55.902;13.606;2023-05-09T12:30:51;101312.24;;;14.23;28.09
49709;BME280;35601;55.902;13.606;2023-05-09T12:33:16;101300.86;;;14.95;26.70
49709;BME280;35601;55.902;13.606;2023-05-09T12:35:44;101305.26;;;15.34;27.39
49709;BME280;35601;55.902;13.606;2023-05-09T12:38:04;101302.50;;;15.87;26.41
49709;BME280;35601;55.902;13.606;2023-05-09T12:40:30;101307.70;;;15.30;27.00